Time,TemperatureF,DewpointF,PressureIn,WindDirection,WindDirectionDegrees,WindSpeedMPH,WindSpeedGustMPH,Humidity,HourlyPrecipIn,Conditions,Clouds,dailyrainin,SoftwareType,DateUTC
2013-10-09 00:00:00,41.7,39.4,30.43,WSW,238,0.0,0.0,92,0.00,,SCT,0.00,VWS V14.00,2013-10-09 04:00:00,
2013-10-09 00:02:00,41.1,39.0,30.43,WSW,238,0.0,0.0,92,0.00,,SKC,0.00,VWS V14.00,2013-10-09 04:02:00,
2013-10-09 00:07:00,40.8,38.7,30.43,WSW,238,0.0,0.0,92,0.00,,SKC,0.00,VWS V14.00,2013-10-09 04:07:00,
2013-10-09 00:12:00,40.7,38.6,30.43,WSW,238,0.0,0.0,92,0.00,,SKC,0.00,VWS V14.00,2013-10-09 04:12:00,
2013-10-09 00:17:00,40.4,38.3,30.43,WSW,238,0.0,0.0,92,0.00,,SKC,0.00,VWS V14.00,2013-10-09 04:17:00,
2013-10-09 00:22:00,40.3,38.2,30.43,WSW,238,0.0,0.0,92,0.00,,SKC,0.00,VWS V14.00,2013-10-09 04:22:00,
2013-10-09 00:27:00,40.2,38.1,30.44,WSW,238,0.0,0.0,92,0.00,,SKC,0.00,VWS V14.00,2013-10-09 04:27:00,
2013-10-09 00:30:00,41.0,38.9,30.42,WSW,238,0.0,0.0,92,0.00,,SCT,0.00,VWS V14.00,2013-10-09 04:30:00,
2013-10-09 00:32:00,39.9,37.8,30.44,WSW,238,0.0,0.0,92,0.00,,SKC,0.00,VWS V14.00,2013-10-09 04:32:00,
2013-10-09 00:37:00,39.6,37.5,30.44,WSW,238,0.0,0.0,92,0.00,,SKC,0.00,VWS V14.00,2013-10-09 04:37:00,
2013-10-09 00:42:00,39.4,37.4,30.44,WSW,238,0.0,0.0,92,0.00,,SKC,0.00,VWS V14.00,2013-10-09 04:42:00,
2013-10-09 00:47:00,39.5,37.6,30.44,WSW,238,0.0,0.0,93,0.00,,SKC,0.00,VWS V14.00,2013-10-09 04:47:00,
2013-10-09 00:52:00,39.4,37.4,30.44,WSW,238,0.0,0.0,92,0.00,,SKC,0.00,VWS V14.00,2013-10-09 04:52:00,
2013-10-09 00:57:00,39.3,37.3,30.44,WSW,238,0.0,0.0,92,0.00,,SKC,0.00,VWS V14.00,2013-10-09 04:57:00,
2013-10-09 01:02:00,39.2,37.2,30.44,WSW,238,0.0,0.0,93,0.00,,SKC,0.00,VWS V14.00,2013-10-09 05:02:00,
2013-10-09 01:07:00,38.9,37.0,30.45,WSW,238,0.0,0.0,93,0.00,,SKC,0.00,VWS V14.00,2013-10-09 05:07:00,
2013-10-09 01:12:00,38.7,36.8,30.45,WSW,238,0.0,0.0,93,0.00,,SKC,0.00,VWS V14.00,2013-10-09 05:12:00,
2013-10-09 01:17:00,38.5,36.6,30.45,WSW,238,0.0,0.0,93,0.00,,SKC,0.00,VWS V14.00,2013-10-09 05:17:00,
2013-10-09 01:22:00,38.2,36.4,30.45,WSW,238,0.0,0.0,93,0.00,,SKC,0.00,VWS V14.00,2013-10-09 05:22:00,
2013-10-09 01:27:00,38.2,36.4,30.45,WSW,238,0.0,0.0,93,0.00,,SKC,0.00,VWS V14.00,2013-10-09 05:27:00,
2013-10-09 01:30:00,40.0,37.9,30.43,WSW,238,0.0,0.0,92,0.00,,SCT,0.00,VWS V14.00,2013-10-09 05:30:00,
2013-10-09 01:33:00,38.1,36.3,30.45,WSW,238,0.0,0.0,93,0.00,,SKC,0.00,VWS V14.00,2013-10-09 05:33:00,
2013-10-09 01:38:00,38.1,36.3,30.45,WSW,238,0.0,0.0,93,0.00,,SKC,0.00,VWS V14.00,2013-10-09 05:38:00,
2013-10-09 01:43:00,38.1,36.4,30.45,WSW,238,0.0,0.0,93,0.00,,SKC,0.00,VWS V14.00,2013-10-09 05:43:00,
2013-10-09 01:48:00,38.0,36.3,30.45,WSW,238,0.0,0.0,94,0.00,,SKC,0.00,VWS V14.00,2013-10-09 05:48:00,
2013-10-09 01:53:00,38.4,36.8,30.46,WSW,238,0.0,0.0,94,0.00,,SKC,0.00,VWS V14.00,2013-10-09 05:53:00,
2013-10-09 01:58:00,38.4,36.7,30.46,WSW,238,0.0,0.0,94,0.00,,SKC,0.00,VWS V14.00,2013-10-09 05:58:00,
2013-10-09 02:00:00,39.3,37.3,30.44,WSW,238,0.0,0.0,93,0.00,,SCT,0.00,VWS V14.00,2013-10-09 06:00:00,
2013-10-09 02:03:00,38.2,36.5,30.46,WSW,238,0.0,0.0,94,0.00,,SKC,0.00,VWS V14.00,2013-10-09 06:03:00,
2013-10-09 02:08:00,38.1,36.4,30.46,WSW,238,0.0,0.0,94,0.00,,SKC,0.00,VWS V14.00,2013-10-09 06:08:00,
2013-10-09 02:13:00,37.9,36.3,30.46,WSW,238,0.0,0.0,94,0.00,,SKC,0.00,VWS V14.00,2013-10-09 06:13:00,
2013-10-09 02:18:00,37.6,36.0,30.46,WSW,238,0.0,0.0,94,0.00,,SKC,0.00,VWS V14.00,2013-10-09 06:18:00,
2013-10-09 02:23:00,37.5,35.9,30.46,WSW,238,0.0,0.0,94,0.00,,SKC,0.00,VWS V14.00,2013-10-09 06:23:00,
2013-10-09 02:28:00,37.4,35.8,30.46,WSW,238,0.0,0.0,94,0.00,,SKC,0.00,VWS V14.00,2013-10-09 06:28:00,
2013-10-09 02:30:00,38.2,36.4,30.45,WSW,238,0.0,0.0,93,0.00,,SCT,0.00,VWS V14.00,2013-10-09 06:30:00,
2013-10-09 02:33:00,37.3,35.8,30.46,WSW,238,0.0,0.0,94,0.00,,SKC,0.00,VWS V14.00,2013-10-09 06:33:00,
2013-10-09 02:38:00,37.3,35.8,30.46,WSW,238,0.0,0.0,94,0.00,,SKC,0.00,VWS V14.00,2013-10-09 06:38:00,
2013-10-09 02:43:00,37.1,35.5,30.46,WSW,238,0.0,0.0,94,0.00,,SKC,0.00,VWS V14.00,2013-10-09 06:43:00,
2013-10-09 02:48:00,37.0,35.5,30.46,WSW,238,0.0,0.0,94,0.00,,SKC,0.00,VWS V14.00,2013-10-09 06:48:00,
2013-10-09 02:53:00,36.8,35.3,30.46,WSW,238,0.0,0.0,94,0.00,,SKC,0.00,VWS V14.00,2013-10-09 06:53:00,
2013-10-09 02:58:00,36.9,35.5,30.46,WSW,238,0.0,0.0,95,0.00,,SKC,0.00,VWS V14.00,2013-10-09 06:58:00,
2013-10-09 03:00:00,38.3,36.6,30.46,WSW,238,0.0,0.0,94,0.00,,SCT,0.00,VWS V14.00,2013-10-09 07:00:00,
2013-10-09 03:03:00,37.2,35.8,30.46,WSW,238,0.0,0.0,94,0.00,,SKC,0.00,VWS V14.00,2013-10-09 07:03:00,
2013-10-09 03:08:00,37.3,36.0,30.46,WSW,238,0.0,0.0,95,0.00,,SKC,0.00,VWS V14.00,2013-10-09 07:08:00,
2013-10-09 03:13:00,37.6,36.3,30.46,WSW,238,0.0,0.0,95,0.00,,SKC,0.00,VWS V14.00,2013-10-09 07:13:00,
2013-10-09 03:18:00,37.5,36.1,30.46,WSW,238,0.0,0.0,95,0.00,,SKC,0.00,VWS V14.00,2013-10-09 07:18:00,
2013-10-09 03:23:00,37.5,36.1,30.47,WSW,238,0.0,0.0,95,0.00,,SKC,0.00,VWS V14.00,2013-10-09 07:23:00,
2013-10-09 03:28:00,37.1,35.7,30.46,WSW,238,0.0,0.0,95,0.00,,SKC,0.00,VWS V14.00,2013-10-09 07:28:00,
2013-10-09 03:30:00,37.4,35.8,30.46,WSW,238,0.0,0.0,94,0.00,,SCT,0.00,VWS V14.00,2013-10-09 07:30:00,
2013-10-09 03:33:00,36.9,35.5,30.46,WSW,238,0.0,0.0,95,0.00,,SKC,0.00,VWS V14.00,2013-10-09 07:33:00,
2013-10-09 03:38:00,36.7,35.3,30.46,WSW,238,0.0,0.0,95,0.00,,SKC,0.00,VWS V14.00,2013-10-09 07:38:00,
2013-10-09 03:43:00,36.4,35.0,30.47,WSW,238,0.0,0.0,95,0.00,,SKC,0.00,VWS V14.00,2013-10-09 07:43:00,
2013-10-09 03:48:00,36.6,35.3,30.47,WSW,238,0.0,0.0,95,0.00,,SKC,0.00,VWS V14.00,2013-10-09 07:48:00,
2013-10-09 03:53:00,36.5,35.2,30.47,WSW,238,0.0,0.0,95,0.00,,SKC,0.00,VWS V14.00,2013-10-09 07:53:00,
2013-10-09 03:58:00,36.1,34.8,30.47,WSW,238,0.0,0.0,95,0.00,,SKC,0.00,VWS V14.00,2013-10-09 07:58:00,
2013-10-09 04:00:00,36.9,35.5,30.46,WSW,238,0.0,0.0,95,0.00,,SCT,0.00,VWS V14.00,2013-10-09 08:00:00,
2013-10-09 04:03:00,35.9,34.6,30.47,WSW,238,0.0,0.0,95,0.00,,SKC,0.00,VWS V14.00,2013-10-09 08:03:00,
2013-10-09 04:08:00,35.8,34.5,30.47,WSW,238,0.0,0.0,95,0.00,,SKC,0.00,VWS V14.00,2013-10-09 08:08:00,
2013-10-09 04:13:00,35.6,34.3,30.47,WSW,238,0.0,0.0,95,0.00,,SKC,0.00,VWS V14.00,2013-10-09 08:13:00,
2013-10-09 04:18:00,35.6,34.3,30.47,WSW,238,0.0,0.0,95,0.00,,SKC,0.00,VWS V14.00,2013-10-09 08:18:00,
2013-10-09 04:23:00,35.5,34.3,30.47,WSW,238,0.0,0.0,95,0.00,,SKC,0.00,VWS V14.00,2013-10-09 08:23:00,
2013-10-09 04:28:00,35.5,34.3,30.47,WSW,238,0.0,0.0,95,0.00,,SKC,0.00,VWS V14.00,2013-10-09 08:28:00,
2013-10-09 04:30:00,37.1,35.7,30.47,WSW,238,0.0,0.0,95,0.00,,SCT,0.00,VWS V14.00,2013-10-09 08:30:00,
2013-10-09 04:33:00,35.5,34.3,30.47,WSW,238,0.0,0.0,95,0.00,,SKC,0.00,VWS V14.00,2013-10-09 08:33:00,
2013-10-09 04:38:00,35.6,34.4,30.47,WSW,238,0.0,0.0,95,0.00,,SKC,0.00,VWS V14.00,2013-10-09 08:38:00,
2013-10-09 04:43:00,35.5,34.3,30.47,WSW,238,0.0,0.0,95,0.00,,SKC,0.00,VWS V14.00,2013-10-09 08:43:00,
2013-10-09 04:48:00,35.4,34.2,30.47,WSW,238,0.0,0.0,95,0.00,,SKC,0.00,VWS V14.00,2013-10-09 08:48:00,
2013-10-09 04:53:00,35.2,34.0,30.48,WSW,238,0.0,0.0,95,0.00,,SKC,0.00,VWS V14.00,2013-10-09 08:53:00,
2013-10-09 04:58:00,35.1,33.9,30.48,WSW,238,0.0,0.0,95,0.00,,SKC,0.00,VWS V14.00,2013-10-09 08:58:00,
2013-10-09 05:00:00,36.1,34.8,30.47,WSW,238,0.0,0.0,95,0.00,,SCT,0.00,VWS V14.00,2013-10-09 09:00:00,
2013-10-09 05:03:00,35.0,33.8,30.48,WSW,238,0.0,0.0,95,0.00,,SKC,0.00,VWS V14.00,2013-10-09 09:03:00,
2013-10-09 05:08:00,35.0,33.8,30.48,WSW,238,0.0,0.0,95,0.00,,SKC,0.00,VWS V14.00,2013-10-09 09:08:00,
2013-10-09 05:13:00,35.0,33.8,30.48,WSW,238,0.0,0.0,95,0.00,,SKC,0.00,VWS V14.00,2013-10-09 09:13:00,
2013-10-09 05:18:00,35.0,33.8,30.48,WSW,238,0.0,0.0,95,0.00,,SKC,0.00,VWS V14.00,2013-10-09 09:18:00,
2013-10-09 05:23:00,34.9,33.7,30.48,WSW,238,0.0,0.0,95,0.00,,SKC,0.00,VWS V14.00,2013-10-09 09:23:00,
2013-10-09 05:28:00,35.0,33.8,30.48,WSW,238,0.0,0.0,95,0.00,,SKC,0.00,VWS V14.00,2013-10-09 09:28:00,
2013-10-09 05:30:00,35.5,34.3,30.47,WSW,238,0.0,0.0,95,0.00,,SCT,0.00,VWS V14.00,2013-10-09 09:30:00,
2013-10-09 05:33:00,34.9,33.7,30.48,WSW,238,0.0,0.0,95,0.00,,SKC,0.00,VWS V14.00,2013-10-09 09:33:00,
2013-10-09 05:38:00,34.8,33.6,30.48,WSW,238,0.0,0.0,95,0.00,,SKC,0.00,VWS V14.00,2013-10-09 09:38:00,
2013-10-09 05:43:00,34.7,33.5,30.48,WSW,238,0.0,0.0,95,0.00,,SKC,0.00,VWS V14.00,2013-10-09 09:43:00,
2013-10-09 05:48:00,34.6,33.4,30.48,WSW,238,0.0,0.0,95,0.00,,SKC,0.00,VWS V14.00,2013-10-09 09:48:00,
2013-10-09 05:53:00,34.7,33.6,30.48,WSW,238,0.0,0.0,96,0.00,,SKC,0.00,VWS V14.00,2013-10-09 09:53:00,
2013-10-09 05:58:00,34.8,33.7,30.49,WSW,238,0.0,0.0,96,0.00,,SKC,0.00,VWS V14.00,2013-10-09 09:58:00,
2013-10-09 06:00:00,35.1,33.9,30.48,WSW,238,0.0,0.0,95,0.00,,SCT,0.00,VWS V14.00,2013-10-09 10:00:00,
2013-10-09 06:03:00,34.8,33.7,30.49,WSW,238,0.0,0.0,96,0.00,,SKC,0.00,VWS V14.00,2013-10-09 10:03:00,
2013-10-09 06:08:00,34.8,33.7,30.49,WSW,238,0.0,0.0,96,0.00,,SKC,0.00,VWS V14.00,2013-10-09 10:08:00,
2013-10-09 06:13:00,34.8,33.7,30.49,WSW,238,0.0,0.0,96,0.00,,SKC,0.00,VWS V14.00,2013-10-09 10:13:00,
2013-10-09 06:18:00,34.8,33.7,30.49,WSW,238,0.0,0.0,96,0.00,,SKC,0.00,VWS V14.00,2013-10-09 10:18:00,
2013-10-09 06:23:00,34.8,33.7,30.49,WSW,238,0.0,0.0,96,0.00,,SKC,0.00,VWS V14.00,2013-10-09 10:23:00,
2013-10-09 06:28:00,34.9,33.8,30.49,WSW,238,0.0,0.0,96,0.00,,SKC,0.00,VWS V14.00,2013-10-09 10:28:00,
2013-10-09 06:30:00,35.0,33.8,30.48,WSW,238,0.0,0.0,95,0.00,,SCT,0.00,VWS V14.00,2013-10-09 10:30:00,
2013-10-09 06:33:00,35.0,33.9,30.49,WSW,238,0.0,0.0,96,0.00,,SKC,0.00,VWS V14.00,2013-10-09 10:33:00,
2013-10-09 06:38:00,34.9,33.8,30.49,WSW,238,0.0,0.0,96,0.00,,SKC,0.00,VWS V14.00,2013-10-09 10:38:00,
2013-10-09 06:43:00,34.7,33.6,30.49,WSW,238,0.0,0.0,96,0.00,,SKC,0.00,VWS V14.00,2013-10-09 10:43:00,
2013-10-09 06:48:00,34.4,33.3,30.49,WSW,238,0.0,0.0,96,0.00,,SKC,0.00,VWS V14.00,2013-10-09 10:48:00,
2013-10-09 06:53:00,34.4,33.3,30.49,WSW,238,0.0,0.0,96,0.00,,SKC,0.00,VWS V14.00,2013-10-09 10:53:00,
2013-10-09 06:58:00,34.2,33.1,30.49,WSW,238,0.0,0.0,96,0.00,,SKC,0.00,VWS V14.00,2013-10-09 10:58:00,
2013-10-09 07:00:00,34.8,33.7,30.49,WSW,238,0.0,0.0,96,0.00,,SCT,0.00,VWS V14.00,2013-10-09 11:00:00,
2013-10-09 07:03:00,34.1,33.0,30.49,WSW,238,0.0,0.0,96,0.00,,SKC,0.00,VWS V14.00,2013-10-09 11:03:00,
2013-10-09 07:08:00,34.1,33.0,30.49,WSW,238,0.0,0.0,96,0.00,,SKC,0.00,VWS V14.00,2013-10-09 11:08:00,
2013-10-09 07:13:00,34.2,33.1,30.49,WSW,238,0.0,0.0,96,0.00,,SKC,0.00,VWS V14.00,2013-10-09 11:13:00,
2013-10-09 07:18:00,34.4,33.3,30.49,WSW,238,0.0,0.0,96,0.00,,SKC,0.00,VWS V14.00,2013-10-09 11:18:00,
2013-10-09 07:23:00,34.7,33.7,30.49,WSW,238,0.0,0.0,96,0.00,,SKC,0.00,VWS V14.00,2013-10-09 11:23:00,
2013-10-09 07:28:00,34.8,33.8,30.49,WSW,238,0.0,0.0,96,0.00,,SKC,0.00,VWS V14.00,2013-10-09 11:28:00,
2013-10-09 07:30:00,34.9,33.8,30.49,WSW,238,0.0,0.0,96,0.00,,SCT,0.00,VWS V14.00,2013-10-09 11:30:00,
2013-10-09 07:33:00,35.2,34.2,30.49,WSW,238,0.0,0.0,96,0.00,,SKC,0.00,VWS V14.00,2013-10-09 11:33:00,
2013-10-09 07:38:00,35.3,34.3,30.49,WSW,238,0.0,0.0,96,0.00,,SKC,0.00,VWS V14.00,2013-10-09 11:38:00,
2013-10-09 07:43:00,35.2,34.2,30.49,WSW,238,0.0,0.0,96,0.00,,SKC,0.00,VWS V14.00,2013-10-09 11:43:00,
2013-10-09 07:48:00,35.2,34.2,30.49,WSW,238,0.0,0.0,96,0.00,,SKC,0.00,VWS V14.00,2013-10-09 11:48:00,
2013-10-09 07:53:00,35.4,34.4,30.49,WSW,238,0.0,0.0,96,0.00,,SKC,0.00,VWS V14.00,2013-10-09 11:53:00,
2013-10-09 07:58:00,35.6,34.6,30.49,WSW,238,0.0,0.0,96,0.00,,SKC,0.00,VWS V14.00,2013-10-09 11:58:00,
2013-10-09 08:00:00,34.3,33.2,30.49,WSW,238,0.0,0.0,96,0.00,,SCT,0.00,VWS V14.00,2013-10-09 12:00:00,
2013-10-09 08:03:00,35.8,34.8,30.49,WSW,238,0.0,0.0,96,0.00,,SKC,0.00,VWS V14.00,2013-10-09 12:03:00,
2013-10-09 08:08:00,36.3,35.3,30.50,WSW,238,0.0,0.0,96,0.00,,SKC,0.00,VWS V14.00,2013-10-09 12:08:00,
2013-10-09 08:13:00,37.1,36.2,30.50,WSW,238,0.0,0.0,96,0.00,,SKC,0.00,VWS V14.00,2013-10-09 12:13:00,
2013-10-09 08:18:00,37.7,36.8,30.50,WSW,238,0.0,0.0,96,0.00,,SKC,0.00,VWS V14.00,2013-10-09 12:18:00,
2013-10-09 08:23:00,38.6,37.7,30.50,WSW,238,0.0,0.0,96,0.00,,SKC,0.00,VWS V14.00,2013-10-09 12:23:00,
2013-10-09 08:28:00,39.5,38.6,30.50,WSW,238,0.0,0.0,96,0.00,,SKC,0.00,VWS V14.00,2013-10-09 12:28:00,
2013-10-09 08:30:00,34.9,33.9,30.49,WSW,238,0.0,0.0,96,0.00,,SCT,0.00,VWS V14.00,2013-10-09 12:30:00,
2013-10-09 08:33:00,40.1,39.2,30.50,WSW,238,0.0,0.0,96,0.00,,SKC,0.00,VWS V14.00,2013-10-09 12:33:00,
2013-10-09 08:38:00,40.8,39.9,30.50,WSW,238,0.0,0.0,96,0.00,,SKC,0.00,VWS V14.00,2013-10-09 12:38:00,
2013-10-09 08:44:00,41.7,40.8,30.50,WSW,238,0.0,0.0,96,0.00,,SKC,0.00,VWS V14.00,2013-10-09 12:44:00,
2013-10-09 08:49:00,43.0,42.0,30.50,WSW,238,0.0,0.0,96,0.00,,SKC,0.00,VWS V14.00,2013-10-09 12:49:00,
2013-10-09 08:54:00,43.8,42.7,30.50,WSW,238,0.0,0.0,96,0.00,,SKC,0.00,VWS V14.00,2013-10-09 12:54:00,
2013-10-09 08:59:00,44.1,43.0,30.50,WSW,238,0.0,0.0,96,0.00,,SKC,0.00,VWS V14.00,2013-10-09 12:59:00,
2013-10-09 09:00:00,35.5,34.5,30.49,WSW,238,0.0,0.0,96,0.00,,SCT,0.00,VWS V14.00,2013-10-09 13:00:00,
2013-10-09 09:04:00,44.6,43.5,30.50,WSW,238,0.0,0.8,96,0.00,,SKC,0.00,VWS V14.00,2013-10-09 13:04:00,
2013-10-09 09:09:00,45.3,44.0,30.50,WSW,238,0.0,0.8,95,0.00,,SKC,0.00,VWS V14.00,2013-10-09 13:09:00,
2013-10-09 09:28:00,49.2,44.6,30.50,SE,142,0.0,0.0,84,0.00,,SKC,0.00,VWS V14.00,2013-10-09 13:28:00,
2013-10-09 09:30:00,39.4,38.5,30.50,WSW,238,0.0,0.0,96,0.00,,SCT,0.00,VWS V14.00,2013-10-09 13:30:00,
2013-10-09 09:35:00,50.0,44.2,30.50,SE,142,0.0,0.0,80,0.00,,SKC,0.00,VWS V14.00,2013-10-09 13:35:00,
2013-10-09 09:40:00,50.1,43.8,30.50,SE,142,0.0,0.0,79,0.00,,SKC,0.00,VWS V14.00,2013-10-09 13:40:00,
2013-10-09 09:45:00,50.4,44.1,30.50,SE,142,0.0,0.0,79,0.00,,SKC,0.00,VWS V14.00,2013-10-09 13:45:00,
2013-10-09 09:50:00,50.9,44.4,30.50,SE,142,0.0,0.0,78,0.00,,SKC,0.00,VWS V14.00,2013-10-09 13:50:00,
2013-10-09 09:55:00,51.3,44.5,30.50,SE,142,0.0,0.0,77,0.00,,SKC,0.00,VWS V14.00,2013-10-09 13:55:00,
2013-10-09 10:00:00,52.2,44.5,30.50,SE,142,0.0,0.0,75,0.00,,SKC,0.00,VWS V14.00,2013-10-09 14:00:00,
2013-10-09 10:05:00,53.2,44.7,30.51,SE,142,0.0,0.0,73,0.00,,SKC,0.00,VWS V14.00,2013-10-09 14:05:00,
2013-10-09 10:10:00,53.8,44.1,30.50,South,176,1.2,3.5,70,0.00,,SKC,0.00,VWS V14.00,2013-10-09 14:10:00,
2013-10-09 10:15:00,54.4,44.2,30.51,South,183,0.0,3.5,68,0.00,,SKC,0.00,VWS V14.00,2013-10-09 14:15:00,
2013-10-09 10:20:00,55.0,44.8,30.51,South,183,0.0,3.5,68,0.00,,SKC,0.00,VWS V14.00,2013-10-09 14:20:00,
2013-10-09 10:25:00,55.2,44.5,30.51,SW,217,0.0,3.6,67,0.00,,SKC,0.00,VWS V14.00,2013-10-09 14:25:00,
2013-10-09 10:30:00,55.5,43.9,30.51,SSE,166,0.0,5.2,65,0.00,,SKC,0.00,VWS V14.00,2013-10-09 14:30:00,
2013-10-09 10:35:00,55.6,43.5,30.51,WSW,239,2.3,5.9,64,0.00,,SKC,0.00,VWS V14.00,2013-10-09 14:35:00,
2013-10-09 10:40:00,55.6,43.9,30.51,SW,219,2.6,6.5,65,0.00,,SKC,0.00,VWS V14.00,2013-10-09 14:40:00,
2013-10-09 10:45:00,55.8,43.4,30.50,South,188,4.2,6.8,63,0.00,,SKC,0.00,VWS V14.00,2013-10-09 14:45:00,
2013-10-09 10:50:00,56.5,43.6,30.50,SSW,198,3.2,6.8,62,0.00,,SKC,0.00,VWS V14.00,2013-10-09 14:50:00,
2013-10-09 10:55:00,56.6,43.3,30.50,South,183,1.5,8.1,61,0.00,,SKC,0.00,VWS V14.00,2013-10-09 14:55:00,
2013-10-09 11:00:00,56.7,42.5,30.50,SSE,152,3.4,6.2,59,0.00,,SKC,0.00,VWS V14.00,2013-10-09 15:00:00,
2013-10-09 11:05:00,56.8,42.9,30.50,ESE,117,0.0,6.3,60,0.00,,SKC,0.00,VWS V14.00,2013-10-09 15:05:00,
2013-10-09 11:10:00,57.1,43.0,30.49,SE,139,0.9,7.4,59,0.00,,SKC,0.00,VWS V14.00,2013-10-09 15:10:00,
2013-10-09 11:15:00,57.5,43.4,30.49,SE,141,0.0,7.4,59,0.00,,SKC,0.00,VWS V14.00,2013-10-09 15:15:00,
2013-10-09 11:20:00,58.0,45.0,30.49,SE,141,0.0,7.4,62,0.00,,SKC,0.00,VWS V14.00,2013-10-09 15:20:00,
2013-10-09 11:25:00,58.1,44.1,30.49,West,274,0.0,7.4,60,0.00,,SKC,0.00,VWS V14.00,2013-10-09 15:25:00,
2013-10-09 11:30:00,58.3,43.2,30.50,WNW,291,0.0,5.8,57,0.00,,SKC,0.00,VWS V14.00,2013-10-09 15:30:00,
2013-10-09 11:35:00,58.8,44.0,30.49,WNW,285,2.1,5.8,58,0.00,,SKC,0.00,VWS V14.00,2013-10-09 15:35:00,
2013-10-09 11:40:00,59.1,43.9,30.49,WSW,242,4.4,7.6,57,0.00,,SKC,0.00,VWS V14.00,2013-10-09 15:40:00,
2013-10-09 11:45:00,59.5,44.4,30.49,SW,235,2.7,7.6,57,0.00,,SKC,0.00,VWS V14.00,2013-10-09 15:45:00,
2013-10-09 11:50:00,59.5,44.2,30.49,WSW,242,2.7,7.6,57,0.00,,SKC,0.00,VWS V14.00,2013-10-09 15:50:00,
2013-10-09 11:55:00,59.5,43.9,30.49,NW,318,2.2,7.6,56,0.00,,SKC,0.00,VWS V14.00,2013-10-09 15:55:00,
2013-10-09 12:00:00,59.4,42.5,30.49,West,263,8.3,8.5,54,0.00,,SKC,0.00,VWS V14.00,2013-10-09 16:00:00,
2013-10-09 12:05:00,59.8,43.2,30.49,SW,218,1.1,8.5,54,0.00,,SKC,0.00,VWS V14.00,2013-10-09 16:05:00,
2013-10-09 12:10:00,60.2,43.8,30.49,West,262,3.2,8.5,55,0.00,,SKC,0.00,VWS V14.00,2013-10-09 16:10:00,
2013-10-09 12:15:00,60.4,42.5,30.49,SW,235,4.8,8.5,52,0.00,,SKC,0.00,VWS V14.00,2013-10-09 16:15:00,
2013-10-09 12:20:00,60.6,43.1,30.49,SW,222,4.0,11.9,52,0.00,,SKC,0.00,VWS V14.00,2013-10-09 16:20:00,
2013-10-09 12:25:00,60.6,42.5,30.49,West,259,4.1,11.9,51,0.00,,SKC,0.00,VWS V14.00,2013-10-09 16:25:00,
2013-10-09 12:30:00,61.0,43.0,30.49,SW,225,3.5,9.3,52,0.00,,SKC,0.00,VWS V14.00,2013-10-09 16:30:00,
2013-10-09 12:35:00,61.1,43.4,30.49,SW,217,2.8,11.0,52,0.00,,SKC,0.00,VWS V14.00,2013-10-09 16:35:00,
2013-10-09 12:40:00,61.3,43.0,30.49,WSW,238,7.1,11.0,51,0.00,,SKC,0.00,VWS V14.00,2013-10-09 16:40:00,
2013-10-09 12:46:00,61.3,43.9,30.48,WSW,253,2.7,11.0,53,0.00,,SKC,0.00,VWS V14.00,2013-10-09 16:46:00,
2013-10-09 12:51:00,61.4,42.3,30.48,West,280,7.6,11.0,50,0.00,,SKC,0.00,VWS V14.00,2013-10-09 16:51:00,
2013-10-09 12:56:00,61.8,42.9,30.48,SW,221,5.1,11.0,50,0.00,,SKC,0.00,VWS V14.00,2013-10-09 16:56:00,
2013-10-09 13:00:00,59.6,44.0,30.49,West,280,4.1,7.6,56,0.00,,SCT,0.00,VWS V14.00,2013-10-09 17:00:00,
2013-10-09 13:01:00,61.8,42.5,30.47,WSW,243,4.2,7.9,49,0.00,,SKC,0.00,VWS V14.00,2013-10-09 17:01:00,
2013-10-09 13:06:00,61.9,42.4,30.47,WSW,246,5.8,9.6,49,0.00,,SKC,0.00,VWS V14.00,2013-10-09 17:06:00,
2013-10-09 13:11:00,62.5,42.4,30.47,SSE,163,3.5,9.6,48,0.00,,SKC,0.00,VWS V14.00,2013-10-09 17:11:00,
2013-10-09 13:16:00,62.7,42.0,30.47,SW,214,7.9,9.6,47,0.00,,SKC,0.00,VWS V14.00,2013-10-09 17:16:00,
2013-10-09 13:21:00,63.3,44.6,30.46,West,280,10.0,10.0,50,0.00,,SKC,0.00,VWS V14.00,2013-10-09 17:21:00,
2013-10-09 13:26:00,63.1,42.7,30.46,SW,236,6.5,10.0,47,0.00,,SKC,0.00,VWS V14.00,2013-10-09 17:26:00,
2013-10-09 13:30:00,60.6,41.6,30.49,SW,233,3.5,11.9,50,0.00,,SCT,0.00,VWS V14.00,2013-10-09 17:30:00,
2013-10-09 13:31:00,63.1,41.8,30.46,West,281,4.8,10.5,46,0.00,,SKC,0.00,VWS V14.00,2013-10-09 17:31:00,
2013-10-09 13:36:00,63.5,41.9,30.46,SW,225,3.0,10.5,45,0.00,,SKC,0.00,VWS V14.00,2013-10-09 17:36:00,
2013-10-09 13:41:00,63.7,41.2,30.46,WSW,242,4.4,10.5,44,0.00,,SKC,0.00,VWS V14.00,2013-10-09 17:41:00,
2013-10-09 13:46:00,64.0,42.0,30.46,West,270,4.7,10.5,44,0.00,,SKC,0.00,VWS V14.00,2013-10-09 17:46:00,
2013-10-09 13:51:00,64.5,42.1,30.46,SW,228,7.1,10.5,44,0.00,,SKC,0.00,VWS V14.00,2013-10-09 17:51:00,
2013-10-09 13:56:00,64.3,41.3,30.45,South,169,8.4,10.5,43,0.00,,SKC,0.00,VWS V14.00,2013-10-09 17:56:00,
2013-10-09 14:00:00,61.9,43.0,30.48,SSE,160,4.5,11.0,50,0.00,,SCT,0.00,VWS V14.00,2013-10-09 18:00:00,
2013-10-09 14:01:00,64.4,38.5,30.45,West,263,6.0,8.0,38,0.00,,SKC,0.00,VWS V14.00,2013-10-09 18:01:00,
2013-10-09 14:06:00,64.7,40.2,30.45,WSW,239,2.1,8.0,40,0.00,,SKC,0.00,VWS V14.00,2013-10-09 18:06:00,
2013-10-09 14:11:00,65.0,40.9,30.44,West,262,4.0,9.4,41,0.00,,SKC,0.00,VWS V14.00,2013-10-09 18:11:00,
2013-10-09 14:16:00,65.0,40.0,30.44,WSW,245,2.1,9.4,40,0.00,,SKC,0.00,VWS V14.00,2013-10-09 18:16:00,
2013-10-09 14:21:00,65.3,43.0,30.44,SW,228,2.8,9.4,44,0.00,,SKC,0.00,VWS V14.00,2013-10-09 18:21:00,
2013-10-09 14:26:00,65.4,40.4,30.43,WNW,294,5.1,9.4,40,0.00,,SKC,0.00,VWS V14.00,2013-10-09 18:26:00,
2013-10-09 14:30:00,63.3,42.3,30.46,WNW,283,5.8,10.0,46,0.00,,SCT,0.00,VWS V14.00,2013-10-09 18:30:00,
2013-10-09 14:31:00,65.0,40.4,30.43,WSW,253,0.0,8.3,40,0.00,,SKC,0.00,VWS V14.00,2013-10-09 18:31:00,
2013-10-09 14:36:00,64.9,40.8,30.43,WNW,284,5.8,8.3,41,0.00,,SKC,0.00,VWS V14.00,2013-10-09 18:36:00,
2013-10-09 14:41:00,64.9,39.7,30.42,WNW,292,2.7,8.3,40,0.00,,SKC,0.00,VWS V14.00,2013-10-09 18:41:00,
2013-10-09 14:46:00,65.0,41.6,30.42,WSW,256,1.1,8.3,42,0.00,,SKC,0.00,VWS V14.00,2013-10-09 18:46:00,
2013-10-09 14:51:00,65.1,41.2,30.42,WNW,294,2.5,8.9,42,0.00,,SKC,0.00,VWS V14.00,2013-10-09 18:51:00,
2013-10-09 14:56:00,65.2,40.9,30.42,South,190,2.9,8.9,41,0.00,,SKC,0.00,VWS V14.00,2013-10-09 18:56:00,
2013-10-09 15:00:00,64.4,40.4,30.45,SSW,211,2.9,10.5,41,0.00,,SCT,0.00,VWS V14.00,2013-10-09 19:00:00,
2013-10-09 15:01:00,65.3,39.7,30.42,NW,314,1.9,6.5,39,0.00,,SKC,0.00,VWS V14.00,2013-10-09 19:01:00,
2013-10-09 15:06:00,65.6,39.9,30.41,NW,315,2.7,6.5,39,0.00,,SKC,0.00,VWS V14.00,2013-10-09 19:06:00,
2013-10-09 15:11:00,65.7,41.9,30.42,West,266,2.5,6.5,42,0.00,,SKC,0.00,VWS V14.00,2013-10-09 19:11:00,
2013-10-09 15:16:00,65.7,41.6,30.42,WNW,287,6.2,7.4,41,0.00,,SKC,0.00,VWS V14.00,2013-10-09 19:16:00,
2013-10-09 15:21:00,65.4,41.4,30.42,NW,304,4.0,7.4,41,0.00,,SKC,0.00,VWS V14.00,2013-10-09 19:21:00,
2013-10-09 15:26:00,65.1,42.8,30.41,West,270,2.9,7.4,44,0.00,,SKC,0.00,VWS V14.00,2013-10-09 19:26:00,
2013-10-09 15:30:00,65.0,39.9,30.43,WNW,290,3.4,9.4,40,0.00,,SCT,0.00,VWS V14.00,2013-10-09 19:30:00,
2013-10-09 15:31:00,65.2,42.7,30.41,NW,309,3.7,4.2,44,0.00,,SKC,0.00,VWS V14.00,2013-10-09 19:31:00,
2013-10-09 15:36:00,65.5,44.0,30.41,West,269,0.0,4.2,46,0.00,,SKC,0.00,VWS V14.00,2013-10-09 19:36:00,
2013-10-09 15:41:00,65.7,42.4,30.41,WNW,291,1.7,5.1,43,0.00,,SKC,0.00,VWS V14.00,2013-10-09 19:41:00,
2013-10-09 15:46:00,65.2,42.6,30.41,West,270,0.0,7.0,44,0.00,,SKC,0.00,VWS V14.00,2013-10-09 19:46:00,
2013-10-09 15:51:00,65.4,43.8,30.40,West,270,3.4,7.0,45,0.00,,SKC,0.00,VWS V14.00,2013-10-09 19:51:00,
2013-10-09 15:56:00,65.4,42.5,30.40,WNW,295,0.0,7.0,43,0.00,,SKC,0.00,VWS V14.00,2013-10-09 19:56:00,
2013-10-09 16:00:00,65.2,39.7,30.42,WNW,300,6.3,8.9,39,0.00,,SCT,0.00,VWS V14.00,2013-10-09 20:00:00,
2013-10-09 16:01:00,65.6,43.2,30.40,WNW,295,0.0,0.9,44,0.00,,SKC,0.00,VWS V14.00,2013-10-09 20:01:00,
2013-10-09 16:06:00,65.8,42.1,30.40,SW,215,0.0,3.0,42,0.00,,SKC,0.00,VWS V14.00,2013-10-09 20:06:00,
2013-10-09 16:11:00,65.5,42.1,30.40,NW,307,4.5,6.8,42,0.00,,SKC,0.00,VWS V14.00,2013-10-09 20:11:00,
2013-10-09 16:16:00,65.0,41.8,30.40,WNW,283,3.0,6.8,43,0.00,,SKC,0.00,VWS V14.00,2013-10-09 20:16:00,
2013-10-09 16:21:00,65.3,41.9,30.39,WNW,285,0.0,6.8,42,0.00,,SKC,0.00,VWS V14.00,2013-10-09 20:21:00,
2013-10-09 16:26:00,65.1,42.2,30.40,NW,325,2.0,6.9,43,0.00,,SKC,0.00,VWS V14.00,2013-10-09 20:26:00,
2013-10-09 16:30:00,65.2,42.3,30.41,North,357,3.7,7.4,43,0.00,,SCT,0.00,VWS V14.00,2013-10-09 20:30:00,
2013-10-09 16:31:00,65.2,42.9,30.39,NW,321,0.0,0.0,44,0.00,,SKC,0.00,VWS V14.00,2013-10-09 20:31:00,
2013-10-09 16:36:00,65.0,42.8,30.39,WNW,295,2.9,5.3,44,0.00,,SKC,0.00,VWS V14.00,2013-10-09 20:36:00,
2013-10-09 16:41:00,65.1,43.1,30.39,West,259,0.0,5.3,45,0.00,,SKC,0.00,VWS V14.00,2013-10-09 20:41:00,
2013-10-09 16:46:00,65.0,42.5,30.39,NW,304,0.0,5.3,44,0.00,,SKC,0.00,VWS V14.00,2013-10-09 20:46:00,
2013-10-09 16:51:00,64.9,42.8,30.39,WNW,290,3.7,5.3,45,0.00,,SKC,0.00,VWS V14.00,2013-10-09 20:51:00,
2013-10-09 16:56:00,64.8,43.4,30.39,NW,312,0.0,5.3,46,0.00,,SKC,0.00,VWS V14.00,2013-10-09 20:56:00,
2013-10-09 17:00:00,65.5,43.0,30.40,WNW,295,0.0,7.0,44,0.00,,SCT,0.00,VWS V14.00,2013-10-09 21:00:00,
2013-10-09 17:01:00,64.8,42.8,30.39,NW,312,0.0,0.0,45,0.00,,SKC,0.00,VWS V14.00,2013-10-09 21:01:00,
2013-10-09 17:06:00,64.8,43.5,30.39,NW,312,0.0,0.0,46,0.00,,SKC,0.00,VWS V14.00,2013-10-09 21:06:00,
2013-10-09 17:11:00,64.6,42.9,30.39,West,273,0.0,3.5,45,0.00,,SKC,0.00,VWS V14.00,2013-10-09 21:11:00,
2013-10-09 17:16:00,64.5,44.9,30.39,West,273,0.0,3.5,49,0.00,,SKC,0.00,VWS V14.00,2013-10-09 21:16:00,
2013-10-09 17:21:00,64.2,44.1,30.39,West,273,0.0,3.5,48,0.00,,SKC,0.00,VWS V14.00,2013-10-09 21:21:00,
2013-10-09 17:26:00,64.0,43.5,30.39,West,273,0.0,3.5,47,0.00,,SKC,0.00,VWS V14.00,2013-10-09 21:26:00,
2013-10-09 17:30:00,65.2,42.2,30.39,NW,321,0.0,6.9,43,0.00,,SCT,0.00,VWS V14.00,2013-10-09 21:30:00,
2013-10-09 17:31:00,63.8,43.7,30.39,West,273,0.0,0.0,48,0.00,,SKC,0.00,VWS V14.00,2013-10-09 21:31:00,
2013-10-09 17:36:00,63.7,44.3,30.39,West,273,0.0,0.0,49,0.00,,SKC,0.00,VWS V14.00,2013-10-09 21:36:00,
2013-10-09 17:41:00,63.5,43.9,30.39,West,273,0.0,0.0,49,0.00,,SKC,0.00,VWS V14.00,2013-10-09 21:41:00,
2013-10-09 17:46:00,63.2,44.2,30.39,West,273,0.0,0.0,50,0.00,,SKC,0.00,VWS V14.00,2013-10-09 21:46:00,
2013-10-09 17:51:00,62.7,45.4,30.39,West,273,0.0,0.0,53,0.00,,SKC,0.00,VWS V14.00,2013-10-09 21:51:00,
2013-10-09 17:56:00,62.3,44.9,30.39,West,273,0.0,0.0,53,0.00,,SKC,0.00,VWS V14.00,2013-10-09 21:56:00,
2013-10-09 18:00:00,64.9,42.9,30.39,NW,312,0.0,5.3,45,0.00,,SCT,0.00,VWS V14.00,2013-10-09 22:00:00,
2013-10-09 18:01:00,62.0,44.4,30.39,West,273,0.0,0.0,52,0.00,,SKC,0.00,VWS V14.00,2013-10-09 22:01:00,
2013-10-09 18:06:00,61.6,44.1,30.39,West,273,0.0,0.0,53,0.00,,SKC,0.00,VWS V14.00,2013-10-09 22:06:00,
2013-10-09 18:11:00,61.1,44.5,30.39,West,273,0.0,0.0,54,0.00,,SKC,0.00,VWS V14.00,2013-10-09 22:11:00,
2013-10-09 18:16:00,60.7,45.1,30.39,West,273,0.0,0.0,56,0.00,,SKC,0.00,VWS V14.00,2013-10-09 22:16:00,
2013-10-09 18:21:00,60.2,44.9,30.39,West,273,0.0,0.0,57,0.00,,SKC,0.00,VWS V14.00,2013-10-09 22:21:00,
2013-10-09 18:26:00,59.8,44.6,30.39,West,273,0.0,0.0,57,0.00,,SKC,0.00,VWS V14.00,2013-10-09 22:26:00,
2013-10-09 18:30:00,63.9,43.8,30.39,West,273,0.0,3.5,48,0.00,,SCT,0.00,VWS V14.00,2013-10-09 22:30:00,
2013-10-09 18:31:00,59.3,44.6,30.39,West,273,0.0,0.0,58,0.00,,SKC,0.00,VWS V14.00,2013-10-09 22:31:00,
2013-10-09 18:36:00,58.9,44.9,30.39,West,273,0.0,0.0,60,0.00,,SKC,0.00,VWS V14.00,2013-10-09 22:36:00,
2013-10-09 18:41:00,58.4,45.0,30.39,West,273,0.0,0.0,61,0.00,,SKC,0.00,VWS V14.00,2013-10-09 22:41:00,
2013-10-09 18:46:00,57.8,45.0,30.38,West,273,0.0,0.0,62,0.00,,SKC,0.00,VWS V14.00,2013-10-09 22:46:00,
2013-10-09 18:51:00,57.1,44.8,30.38,West,273,0.0,0.0,64,0.00,,SKC,0.00,VWS V14.00,2013-10-09 22:51:00,
2013-10-09 18:56:00,56.5,44.8,30.38,West,273,0.0,0.0,65,0.00,,SKC,0.00,VWS V14.00,2013-10-09 22:56:00,
2013-10-09 19:00:00,62.3,44.5,30.39,West,273,0.0,0.0,52,0.00,,SCT,0.00,VWS V14.00,2013-10-09 23:00:00,
2013-10-09 19:01:00,55.9,44.3,30.38,West,273,0.0,0.0,65,0.00,,SKC,0.00,VWS V14.00,2013-10-09 23:01:00,
2013-10-09 19:06:00,55.3,44.5,30.38,West,273,0.0,0.0,67,0.00,,SKC,0.00,VWS V14.00,2013-10-09 23:06:00,
2013-10-09 19:11:00,54.8,44.3,30.38,West,273,0.0,0.0,68,0.00,,SKC,0.00,VWS V14.00,2013-10-09 23:11:00,
2013-10-09 19:16:00,54.5,44.3,30.38,West,273,0.0,0.0,68,0.00,,SKC,0.00,VWS V14.00,2013-10-09 23:16:00,
2013-10-09 19:21:00,54.2,44.2,30.38,West,273,0.0,0.0,69,0.00,,SKC,0.00,VWS V14.00,2013-10-09 23:21:00,
2013-10-09 19:26:00,53.9,44.5,30.38,West,273,0.0,0.0,70,0.00,,SKC,0.00,VWS V14.00,2013-10-09 23:26:00,
2013-10-09 19:30:00,59.5,44.4,30.39,West,273,0.0,0.0,57,0.00,,SCT,0.00,VWS V14.00,2013-10-09 23:30:00,
2013-10-09 19:31:00,53.4,44.4,30.38,West,273,0.0,0.0,72,0.00,,SKC,0.00,VWS V14.00,2013-10-09 23:31:00,
2013-10-09 19:36:00,53.1,44.6,30.38,West,273,0.0,0.0,73,0.00,,SKC,0.00,VWS V14.00,2013-10-09 23:36:00,
2013-10-09 19:41:00,52.7,44.5,30.38,West,273,0.0,0.0,74,0.00,,SKC,0.00,VWS V14.00,2013-10-09 23:41:00,
2013-10-09 19:47:00,52.2,44.5,30.38,West,273,0.0,0.0,75,0.00,,SKC,0.00,VWS V14.00,2013-10-09 23:47:00,
2013-10-09 19:52:00,51.9,44.9,30.38,West,273,0.0,0.0,77,0.00,,SKC,0.00,VWS V14.00,2013-10-09 23:52:00,
2013-10-09 19:57:00,51.4,45.0,30.38,West,273,0.0,0.0,79,0.00,,SKC,0.00,VWS V14.00,2013-10-09 23:57:00,
2013-10-09 20:00:00,56.3,44.5,30.38,West,273,0.0,0.0,65,0.00,,SCT,0.00,VWS V14.00,2013-10-10 00:00:00,
2013-10-09 20:02:00,51.0,44.5,30.38,West,273,0.0,0.0,78,0.00,,SKC,0.00,VWS V14.00,2013-10-10 00:02:00,
2013-10-09 20:07:00,50.9,44.7,30.39,West,273,0.0,0.0,79,0.00,,SKC,0.00,VWS V14.00,2013-10-10 00:07:00,
2013-10-09 20:12:00,50.4,44.4,30.39,West,273,0.0,0.0,80,0.00,,SKC,0.00,VWS V14.00,2013-10-10 00:12:00,
2013-10-09 20:17:00,50.2,44.3,30.39,West,273,0.0,0.0,80,0.00,,SKC,0.00,VWS V14.00,2013-10-10 00:17:00,
2013-10-09 20:22:00,49.8,44.0,30.38,West,273,0.0,0.0,80,0.00,,SKC,0.00,VWS V14.00,2013-10-10 00:22:00,
2013-10-09 20:27:00,49.5,43.8,30.38,West,273,0.0,0.0,80,0.00,,SKC,0.00,VWS V14.00,2013-10-10 00:27:00,
2013-10-09 20:30:00,53.7,44.5,30.38,West,273,0.0,0.0,71,0.00,,SCT,0.00,VWS V14.00,2013-10-10 00:30:00,
2013-10-09 20:32:00,49.2,43.6,30.38,West,273,0.0,0.0,81,0.00,,SKC,0.00,VWS V14.00,2013-10-10 00:32:00,
2013-10-09 20:37:00,48.9,43.8,30.38,West,273,0.0,0.0,83,0.00,,SKC,0.00,VWS V14.00,2013-10-10 00:37:00,
2013-10-09 20:42:00,48.9,44.1,30.38,West,273,0.0,0.0,84,0.00,,SKC,0.00,VWS V14.00,2013-10-10 00:42:00,
2013-10-09 20:47:00,48.9,44.1,30.38,West,273,0.0,0.0,83,0.00,,SKC,0.00,VWS V14.00,2013-10-10 00:47:00,
2013-10-09 20:52:00,48.8,44.0,30.38,West,273,0.0,0.0,83,0.00,,SKC,0.00,VWS V14.00,2013-10-10 00:52:00,
2013-10-09 20:57:00,48.6,43.9,30.38,West,273,0.0,0.0,84,0.00,,SKC,0.00,VWS V14.00,2013-10-10 00:57:00,
2013-10-09 21:00:00,51.2,44.8,30.38,West,273,0.0,0.0,78,0.00,,SCT,0.00,VWS V14.00,2013-10-10 01:00:00,
2013-10-09 21:02:00,48.4,43.8,30.38,West,273,0.0,0.0,84,0.00,,SKC,0.00,VWS V14.00,2013-10-10 01:02:00,
2013-10-09 21:07:00,48.1,43.9,30.38,West,273,0.0,0.0,85,0.00,,SKC,0.00,VWS V14.00,2013-10-10 01:07:00,
2013-10-09 21:12:00,47.8,43.6,30.38,West,273,0.0,0.0,85,0.00,,SKC,0.00,VWS V14.00,2013-10-10 01:12:00,
2013-10-09 21:17:00,47.5,43.3,30.38,West,273,0.0,0.0,85,0.00,,SKC,0.00,VWS V14.00,2013-10-10 01:17:00,
2013-10-09 21:22:00,47.3,43.1,30.38,West,273,0.0,0.0,85,0.00,,SKC,0.00,VWS V14.00,2013-10-10 01:22:00,
2013-10-09 21:27:00,47.0,42.9,30.38,West,273,0.0,0.0,86,0.00,,SKC,0.00,VWS V14.00,2013-10-10 01:27:00,
2013-10-09 21:30:00,49.4,43.7,30.38,West,273,0.0,0.0,81,0.00,,SCT,0.00,VWS V14.00,2013-10-10 01:30:00,
2013-10-09 21:32:00,46.7,42.7,30.38,West,273,0.0,0.0,86,0.00,,SKC,0.00,VWS V14.00,2013-10-10 01:32:00,
2013-10-09 21:37:00,46.5,42.6,30.38,West,273,0.0,0.0,86,0.00,,SKC,0.00,VWS V14.00,2013-10-10 01:37:00,
2013-10-09 21:42:00,46.2,42.5,30.38,West,273,0.0,0.0,87,0.00,,SKC,0.00,VWS V14.00,2013-10-10 01:42:00,
2013-10-09 21:47:00,46.0,42.5,30.38,West,273,0.0,0.0,88,0.00,,SKC,0.00,VWS V14.00,2013-10-10 01:47:00,
2013-10-09 21:52:00,45.9,42.5,30.38,West,273,0.0,0.0,88,0.00,,SKC,0.00,VWS V14.00,2013-10-10 01:52:00,
2013-10-09 21:57:00,45.7,42.3,30.38,West,273,0.0,0.0,88,0.00,,SKC,0.00,VWS V14.00,2013-10-10 01:57:00,
2013-10-09 22:00:00,48.6,43.9,30.38,West,273,0.0,0.0,84,0.00,,SCT,0.00,VWS V14.00,2013-10-10 02:00:00,
2013-10-09 22:02:00,45.5,42.1,30.38,West,273,0.0,0.0,88,0.00,,SKC,0.00,VWS V14.00,2013-10-10 02:02:00,
2013-10-09 22:07:00,45.0,41.7,30.38,West,273,0.0,0.0,88,0.00,,SKC,0.00,VWS V14.00,2013-10-10 02:07:00,
2013-10-09 22:12:00,44.8,41.6,30.38,West,273,0.0,0.0,88,0.00,,SKC,0.00,VWS V14.00,2013-10-10 02:12:00,
2013-10-09 22:17:00,44.6,41.5,30.38,West,273,0.0,0.0,89,0.00,,SKC,0.00,VWS V14.00,2013-10-10 02:17:00,
2013-10-09 22:22:00,44.6,41.7,30.38,West,273,0.0,0.0,89,0.00,,SKC,0.00,VWS V14.00,2013-10-10 02:22:00,
2013-10-09 22:27:00,44.4,41.5,30.38,West,273,0.0,0.0,89,0.00,,SKC,0.00,VWS V14.00,2013-10-10 02:27:00,
2013-10-09 22:30:00,46.9,42.8,30.38,West,273,0.0,0.0,86,0.00,,SCT,0.00,VWS V14.00,2013-10-10 02:30:00,
2013-10-09 22:32:00,44.3,41.4,30.38,West,273,0.0,0.0,90,0.00,,SKC,0.00,VWS V14.00,2013-10-10 02:32:00,
2013-10-09 22:37:00,44.1,41.2,30.38,West,273,0.0,0.0,90,0.00,,SKC,0.00,VWS V14.00,2013-10-10 02:37:00,
2013-10-09 22:42:00,43.9,41.1,30.38,West,273,0.0,0.0,90,0.00,,SKC,0.00,VWS V14.00,2013-10-10 02:42:00,
2013-10-09 22:47:00,43.8,41.1,30.38,West,273,0.0,0.0,90,0.00,,SKC,0.00,VWS V14.00,2013-10-10 02:47:00,
2013-10-09 22:52:00,43.6,40.9,30.39,West,273,0.0,0.0,90,0.00,,SKC,0.00,VWS V14.00,2013-10-10 02:52:00,
2013-10-09 22:57:00,43.4,40.8,30.39,West,273,0.0,0.0,90,0.00,,SKC,0.00,VWS V14.00,2013-10-10 02:57:00,
2013-10-09 23:00:00,45.6,42.2,30.38,West,273,0.0,0.0,88,0.00,,SCT,0.00,VWS V14.00,2013-10-10 03:00:00,
2013-10-09 23:02:00,43.3,40.7,30.39,West,273,0.0,0.0,90,0.00,,SKC,0.00,VWS V14.00,2013-10-10 03:02:00,
2013-10-09 23:07:00,43.3,40.7,30.39,West,273,0.0,0.0,91,0.00,,SKC,0.00,VWS V14.00,2013-10-10 03:07:00,
2013-10-09 23:12:00,43.1,40.7,30.38,West,273,0.0,0.0,91,0.00,,SKC,0.00,VWS V14.00,2013-10-10 03:12:00,
2013-10-09 23:17:00,43.2,40.8,30.38,West,273,0.0,0.0,91,0.00,,SKC,0.00,VWS V14.00,2013-10-10 03:17:00,
2013-10-09 23:22:00,43.3,40.9,30.38,West,273,0.0,0.0,91,0.00,,SKC,0.00,VWS V14.00,2013-10-10 03:22:00,
2013-10-09 23:27:00,43.3,40.9,30.38,West,273,0.0,0.0,91,0.00,,SKC,0.00,VWS V14.00,2013-10-10 03:27:00,
2013-10-09 23:30:00,44.4,41.5,30.38,West,273,0.0,0.0,89,0.00,,SCT,0.00,VWS V14.00,2013-10-10 03:30:00,
2013-10-09 23:32:00,43.4,41.3,30.38,West,273,0.0,0.0,92,0.00,,SKC,0.00,VWS V14.00,2013-10-10 03:32:00,
2013-10-09 23:37:00,43.4,41.2,30.38,West,273,0.0,0.0,92,0.00,,SKC,0.00,VWS V14.00,2013-10-10 03:37:00,
2013-10-09 23:42:00,43.3,41.1,30.38,West,273,0.0,0.0,92,0.00,,SKC,0.00,VWS V14.00,2013-10-10 03:42:00,
2013-10-09 23:47:00,43.0,40.8,30.38,West,273,0.0,0.0,92,0.00,,SKC,0.00,VWS V14.00,2013-10-10 03:47:00,
2013-10-09 23:52:00,42.6,40.4,30.38,West,273,0.0,0.0,92,0.00,,SKC,0.00,VWS V14.00,2013-10-10 03:52:00,
2013-10-09 23:57:00,42.3,40.1,30.38,West,273,0.0,0.0,92,0.00,,SKC,0.00,VWS V14.00,2013-10-10 03:57:00,